Time;durP1;ratioP1;P1;durP2;ratioP2;P2;SDS_P1;SDS_P2;PMS_P1;PMS_P2;Temp;Humidity;BMP_temperature;BMP_pressure;BME280_temperature;BME280_humidity;BME280_pressure;Samples;Min_cycle;Max_cycle;Signal;HPM_P1;HPM_P2
2022/07/02 00:02:23;;;;;;;1.05;0.63;;;17.20;77.50;;;;;;5054067;28;20041;-65
2022/07/02 00:04:58;;;;;;;1.60;0.57;;;17.10;77.60;;;;;;5051055;28;20102;-65
2022/07/02 00:07:26;;;;;;;1.25;0.70;;;17.10;77.60;;;;;;5046966;28;20052;-63
2022/07/02 00:09:54;;;;;;;4.03;0.68;;;17.10;77.30;;;;;;5039888;28;20148;-63
2022/07/02 00:12:23;;;;;;;2.28;0.75;;;17.20;77.10;;;;;;5038588;28;20191;-63
2022/07/02 00:14:53;;;;;;;1.37;0.60;;;17.10;76.90;;;;;;5048421;28;20044;-64
2022/07/02 00:17:20;;;;;;;0.65;0.40;;;17.10;76.90;;;;;;5055496;28;20553;-64
2022/07/02 00:19:47;;;;;;;1.73;0.65;;;17.00;77.00;;;;;;5053002;28;20053;-63
2022/07/02 00:22:15;;;;;;;2.75;0.80;;;16.90;77.10;;;;;;5052863;28;20052;-64
2022/07/02 00:24:43;;;;;;;1.90;0.68;;;16.80;77.20;;;;;;5049758;28;20066;-63
2022/07/02 00:27:11;;;;;;;1.30;0.70;;;16.70;77.30;;;;;;5054720;28;20049;-63
2022/07/02 00:29:44;;;;;;;2.08;0.60;;;16.70;77.40;;;;;;5050553;28;20103;-63
2022/07/02 00:32:11;;;;;;;1.15;0.68;;;16.70;77.40;;;;;;5054159;28;20107;-65
2022/07/02 00:34:39;;;;;;;1.25;0.50;;;16.70;77.40;;;;;;5053376;28;20041;-62
2022/07/02 00:37:08;;;;;;;3.55;0.80;;;16.60;77.50;;;;;;5048347;28;20048;-64
2022/07/02 00:39:35;;;;;;;1.00;0.60;;;16.60;77.40;;;;;;5045015;28;20044;-64
2022/07/02 00:42:03;;;;;;;0.68;0.40;;;16.60;77.50;;;;;;5047596;28;20126;-63
2022/07/02 00:44:31;;;;;;;2.15;0.68;;;16.60;77.50;;;;;;5049276;28;20060;-65
2022/07/02 00:47:02;;;;;;;0.80;0.50;;;16.60;77.50;;;;;;5044204;28;20466;-65
2022/07/02 00:49:30;;;;;;;1.08;0.70;;;16.50;77.50;;;;;;5052029;28;20055;-63
2022/07/02 00:51:57;;;;;;;1.52;0.60;;;16.50;77.60;;;;;;5045095;28;20048;-64
2022/07/02 00:54:24;;;;;;;1.02;0.50;;;16.40;77.60;;;;;;5048836;28;20124;-62
2022/07/02 00:56:52;;;;;;;0.90;0.47;;;16.40;77.50;;;;;;5054037;28;20044;-65
2022/07/02 00:59:19;;;;;;;0.90;0.60;;;16.40;77.50;;;;;;5050424;28;20056;-64
2022/07/02 01:01:46;;;;;;;2.42;0.57;;;16.30;77.40;;;;;;5054193;28;20056;-62
2022/07/02 01:04:16;;;;;;;4.50;1.00;;;16.30;77.40;;;;;;5054609;28;20862;-64
2022/07/02 01:06:43;;;;;;;0.50;0.43;;;16.30;77.50;;;;;;5053892;28;20052;-63
2022/07/02 01:11:59;;;;;;;1.30;0.73;;;16.10;77.50;;;;;;5053427;28;20063;-63
2022/07/02 01:14:26;;;;;;;1.43;0.47;;;16.10;77.50;;;;;;5047181;28;20063;-64
2022/07/02 01:16:54;;;;;;;2.03;0.60;;;16.10;77.50;;;;;;5046069;28;20140;-62
2022/07/02 01:19:24;;;;;;;1.65;0.60;;;16.10;77.40;;;;;;5045493;28;20049;-63
2022/07/02 01:22:13;;;;;;;1.58;0.60;;;16.10;77.40;;;;;;5043189;28;20421;-62
2022/07/02 01:24:40;;;;;;;1.35;0.50;;;16.00;77.60;;;;;;5050213;28;20253;-62
2022/07/02 01:27:08;;;;;;;3.35;0.70;;;15.90;77.60;;;;;;5054370;28;20501;-64
2022/07/02 01:29:35;;;;;;;1.77;0.45;;;16.00;77.60;;;;;;5052537;28;20076;-62
2022/07/02 01:32:02;;;;;;;2.05;0.60;;;15.90;77.70;;;;;;5049634;28;20066;-63
2022/07/02 01:34:29;;;;;;;0.85;0.60;;;15.90;77.60;;;;;;5058596;28;20135;-66
2022/07/02 01:36:56;;;;;;;0.60;0.43;;;15.90;77.70;;;;;;5050615;28;20060;-66
2022/07/02 01:39:28;;;;;;;1.65;0.60;;;15.80;77.70;;;;;;5055497;28;20053;-65
2022/07/02 01:41:55;;;;;;;2.50;0.50;;;15.80;77.60;;;;;;5051003;28;20045;-65
2022/07/02 01:44:22;;;;;;;4.38;0.60;;;15.80;77.60;;;;;;5053928;28;20479;-66
2022/07/02 01:46:49;;;;;;;2.22;0.52;;;15.70;77.60;;;;;;5052316;28;20044;-63
2022/07/02 01:49:16;;;;;;;5.45;0.50;;;15.80;77.60;;;;;;5066738;28;20048;-65
2022/07/02 01:51:43;;;;;;;1.73;0.63;;;15.80;77.60;;;;;;5053262;28;20379;-63
2022/07/02 01:54:10;;;;;;;2.95;0.50;;;15.70;77.50;;;;;;5056332;28;20044;-64
2022/07/02 01:56:38;;;;;;;0.80;0.50;;;15.70;77.60;;;;;;5057809;28;20051;-65
2022/07/02 01:59:06;;;;;;;1.60;0.70;;;15.60;77.70;;;;;;5054272;28;20434;-64
2022/07/02 02:01:33;;;;;;;1.30;0.32;;;15.60;77.70;;;;;;5054128;28;20052;-66
2022/07/02 02:04:00;;;;;;;3.40;0.73;;;15.60;77.60;;;;;;5055735;28;20041;-64
2022/07/02 02:06:27;;;;;;;2.03;0.70;;;15.60;77.70;;;;;;5053809;28;20045;-66
2022/07/02 02:08:55;;;;;;;0.82;0.70;;;15.50;77.70;;;;;;5057026;28;20102;-65
2022/07/02 02:11:22;;;;;;;1.42;0.80;;;15.50;77.80;;;;;;5058215;28;20037;-64
2022/07/02 02:13:50;;;;;;;3.40;0.60;;;15.50;77.90;;;;;;5054729;28;20512;-65
2022/07/02 02:16:17;;;;;;;0.90;0.60;;;15.40;77.90;;;;;;5056305;28;20045;-64
2022/07/02 02:18:44;;;;;;;1.70;0.77;;;15.50;77.80;;;;;;5057544;28;20500;-63
2022/07/02 02:21:11;;;;;;;1.30;0.68;;;15.40;77.70;;;;;;5052378;28;20049;-63
2022/07/02 02:23:38;;;;;;;1.00;0.70;;;15.40;77.80;;;;;;5056854;28;20071;-66
2022/07/02 02:26:05;;;;;;;1.40;0.60;;;15.40;77.90;;;;;;5060177;28;20053;-66
2022/07/02 02:28:32;;;;;;;1.83;0.65;;;15.40;77.90;;;;;;5059277;28;20128;-66
2022/07/02 02:31:00;;;;;;;0.50;0.43;;;15.30;77.90;;;;;;5060708;28;20380;-65
2022/07/02 02:33:28;;;;;;;1.52;0.70;;;15.30;77.90;;;;;;5062740;28;20455;-66
2022/07/02 02:35:55;;;;;;;0.65;0.50;;;15.30;77.90;;;;;;5058583;28;20405;-66
2022/07/02 02:38:22;;;;;;;1.70;0.60;;;15.20;78.10;;;;;;5060308;28;20048;-66
2022/07/02 02:40:49;;;;;;;1.10;0.50;;;15.20;78.10;;;;;;5059336;28;20426;-66
2022/07/02 02:43:16;;;;;;;5.18;1.23;;;15.30;78.10;;;;;;5056841;28;20040;-66
2022/07/02 02:45:43;;;;;;;5.32;0.80;;;15.20;78.20;;;;;;5058346;28;20076;-64
2022/07/02 02:48:11;;;;;;;1.40;0.60;;;15.20;78.40;;;;;;5059123;28;20056;-66
2022/07/02 02:50:38;;;;;;;2.58;0.60;;;15.20;78.30;;;;;;5057371;28;20057;-66
2022/07/02 02:53:05;;;;;;;2.25;0.82;;;15.20;78.50;;;;;;5058596;28;20048;-66
2022/07/02 02:55:32;;;;;;;1.80;0.73;;;15.20;78.50;;;;;;5060340;28;20053;-66
2022/07/02 02:57:59;;;;;;;1.17;0.85;;;15.20;79.00;;;;;;5061477;28;20044;-65
2022/07/02 03:00:27;;;;;;;1.95;0.88;;;15.20;79.40;;;;;;5058105;28;20048;-64
2022/07/02 03:02:54;;;;;;;1.48;1.10;;;15.20;79.90;;;;;;5061018;28;20409;-66
2022/07/02 03:05:22;;;;;;;1.85;1.08;;;15.20;80.20;;;;;;5058678;28;20597;-64
2022/07/02 03:07:49;;;;;;;2.17;1.10;;;15.20;80.50;;;;;;5060255;28;20434;-66
2022/07/02 03:10:16;;;;;;;2.50;1.05;;;15.30;80.50;;;;;;5059216;28;20048;-64
2022/07/02 03:12:43;;;;;;;2.78;1.30;;;15.30;80.70;;;;;;5060410;28;20057;-65
2022/07/02 03:15:10;;;;;;;2.55;1.30;;;15.30;80.90;;;;;;5058495;28;20060;-66
2022/07/02 03:17:37;;;;;;;2.25;1.20;;;15.30;81.00;;;;;;5058204;28;20119;-65
2022/07/02 03:20:05;;;;;;;2.35;1.08;;;15.30;80.90;;;;;;5058481;28;20088;-64
2022/07/02 03:22:34;;;;;;;3.03;1.10;;;15.30;80.70;;;;;;5057586;28;20140;-66
2022/07/02 03:25:01;;;;;;;6.90;1.52;;;15.30;80.60;;;;;;5057217;28;20072;-66
2022/07/02 03:27:28;;;;;;;5.82;1.42;;;15.30;80.60;;;;;;5056988;28;20414;-66
2022/07/02 03:29:55;;;;;;;3.70;1.60;;;15.30;80.60;;;;;;5046321;28;20371;-66
2022/07/02 03:32:25;;;;;;;3.20;1.17;;;15.30;80.50;;;;;;5047268;28;20121;-66
2022/07/02 03:34:52;;;;;;;;;;;15.20;80.60;;;;;;5045868;28;20049;-65
2022/07/02 03:37:19;;;;;;;8.63;1.58;;;15.30;80.60;;;;;;5043976;28;20374;-66
2022/07/02 03:39:48;;;;;;;2.85;1.33;;;15.30;80.60;;;;;;5040770;28;20122;-62
2022/07/02 03:42:15;;;;;;;1.88;1.08;;;15.30;80.90;;;;;;5048521;28;20047;-64
2022/07/02 03:44:42;;;;;;;2.40;1.00;;;15.30;80.90;;;;;;5053181;28;20041;-65
2022/07/02 03:47:09;;;;;;;2.13;1.08;;;15.40;81.00;;;;;;5054104;28;20167;-64
2022/07/02 03:49:36;;;;;;;1.95;0.80;;;15.40;80.90;;;;;;5054470;28;20050;-65
2022/07/02 03:52:03;;;;;;;2.15;1.23;;;15.30;81.00;;;;;;5057030;28;20051;-65
2022/07/02 03:54:30;;;;;;;2.97;1.23;;;15.30;81.00;;;;;;5051894;28;20041;-64
2022/07/02 03:56:58;;;;;;;2.60;1.10;;;15.40;81.20;;;;;;5054049;28;20044;-65
2022/07/02 03:59:25;;;;;;;2.58;1.00;;;15.40;81.30;;;;;;5055761;28;20078;-63
2022/07/02 04:01:52;;;;;;;1.38;0.85;;;15.40;81.40;;;;;;5052061;28;20076;-65
2022/07/02 04:04:19;;;;;;;2.30;1.05;;;15.40;81.40;;;;;;5056067;28;20548;-64
2022/07/02 04:06:47;;;;;;;3.53;1.35;;;15.50;81.20;;;;;;5054548;28;20051;-65
2022/07/02 04:09:14;;;;;;;2.58;1.08;;;15.40;81.20;;;;;;5056218;28;20106;-64
2022/07/02 04:11:41;;;;;;;3.20;1.60;;;15.30;81.30;;;;;;5055865;28;20032;-65
2022/07/02 04:14:09;;;;;;;3.05;1.33;;;15.30;81.50;;;;;;5057138;28;20048;-63
2022/07/02 04:16:36;;;;;;;2.30;1.33;;;15.30;81.40;;;;;;5050129;28;20486;-65
2022/07/02 04:19:03;;;;;;;2.10;1.15;;;15.30;81.50;;;;;;5057002;28;20116;-64
2022/07/02 04:21:30;;;;;;;2.67;1.20;;;15.40;81.50;;;;;;5054110;28;20048;-65
2022/07/02 04:23:57;;;;;;;2.17;0.95;;;15.40;81.20;;;;;;5054823;28;20044;-64
2022/07/02 04:26:24;;;;;;;2.10;1.10;;;15.50;81.00;;;;;;5058235;28;20060;-63
2022/07/02 04:28:51;;;;;;;3.08;1.23;;;15.50;81.10;;;;;;5055834;28;20061;-65
2022/07/02 04:31:19;;;;;;;3.72;1.65;;;15.50;81.10;;;;;;5058196;28;20049;-64
2022/07/02 04:33:46;;;;;;;4.20;1.60;;;15.60;80.70;;;;;;5055140;28;20053;-65
2022/07/02 04:36:13;;;;;;;2.03;1.05;;;15.60;80.20;;;;;;5056761;28;20049;-63
2022/07/02 04:38:40;;;;;;;2.05;0.80;;;15.60;80.00;;;;;;5056857;28;20044;-62
2022/07/02 04:41:07;;;;;;;1.63;0.80;;;15.60;79.50;;;;;;5056916;28;20044;-62
2022/07/02 04:43:34;;;;;;;1.58;0.73;;;15.50;79.80;;;;;;5056180;28;20110;-66
2022/07/02 04:46:00;;;;;;;2.08;0.80;;;15.40;79.90;;;;;;5056964;28;20478;-65
2022/07/02 04:48:29;;;;;;;1.65;1.00;;;15.40;79.90;;;;;;5056196;28;20044;-64
2022/07/02 04:50:55;;;;;;;2.90;1.50;;;15.40;79.60;;;;;;5057151;28;20051;-64
2022/07/02 04:53:22;;;;;;;1.48;0.80;;;15.40;79.70;;;;;;5057701;28;20056;-64
2022/07/02 04:55:49;;;;;;;2.67;1.10;;;15.40;79.80;;;;;;5055456;28;20052;-64
2022/07/02 04:58:16;;;;;;;4.28;1.30;;;15.40;79.90;;;;;;5054840;28;20052;-63
2022/07/02 05:00:43;;;;;;;2.60;1.25;;;15.30;80.10;;;;;;5054594;28;20053;-65
2022/07/02 05:03:10;;;;;;;4.13;1.30;;;15.40;79.90;;;;;;5054504;28;20052;-65
2022/07/02 05:05:38;;;;;;;1.92;1.00;;;15.30;80.10;;;;;;5055817;28;20049;-64
2022/07/02 05:08:05;;;;;;;2.22;1.10;;;15.40;80.20;;;;;;5054364;28;20061;-64
2022/07/02 05:10:32;;;;;;;7.20;1.15;;;15.40;80.10;;;;;;5056070;28;20037;-64
2022/07/02 05:12:59;;;;;;;2.17;1.05;;;15.40;79.80;;;;;;5053432;28;20049;-65
2022/07/02 05:15:26;;;;;;;3.40;1.33;;;15.40;80.10;;;;;;5055546;28;20092;-65
2022/07/02 05:17:53;;;;;;;2.17;1.00;;;15.50;79.50;;;;;;5053702;28;20080;-64
2022/07/02 05:20:20;;;;;;;2.50;1.13;;;15.50;79.30;;;;;;5055732;28;20045;-64
2022/07/02 05:22:48;;;;;;;2.67;0.88;;;15.50;79.40;;;;;;5054602;28;20501;-66
2022/07/02 05:25:15;;;;;;;1.75;0.95;;;15.50;79.60;;;;;;5055347;28;20056;-65
2022/07/02 05:27:42;;;;;;;1.75;1.02;;;15.50;79.40;;;;;;5054961;28;20068;-62
2022/07/02 05:30:09;;;;;;;1.75;0.85;;;15.60;79.30;;;;;;5058097;28;20040;-63
2022/07/02 05:32:36;;;;;;;1.98;1.10;;;15.50;79.30;;;;;;5061481;28;20067;-65
2022/07/02 05:35:04;;;;;;;3.30;1.27;;;15.50;79.50;;;;;;5060711;28;20045;-65
2022/07/02 05:37:32;;;;;;;1.73;1.20;;;15.60;79.40;;;;;;5056456;28;20055;-65
2022/07/02 05:40:01;;;;;;;1.60;0.88;;;15.60;79.40;;;;;;5059903;28;20044;-63
2022/07/02 05:42:28;;;;;;;1.63;0.90;;;15.60;79.50;;;;;;5060577;28;20036;-64
2022/07/02 05:44:55;;;;;;;1.50;0.80;;;15.60;79.70;;;;;;5059736;28;20068;-65
2022/07/02 05:47:21;;;;;;;1.73;0.98;;;15.60;79.80;;;;;;5057736;28;20045;-65
2022/07/02 05:49:48;;;;;;;2.70;0.90;;;15.70;79.80;;;;;;5059671;28;20072;-64
2022/07/02 05:52:17;;;;;;;3.60;1.35;;;15.70;79.40;;;;;;5058792;28;20052;-64
2022/07/02 05:54:44;;;;;;;2.42;1.10;;;15.80;79.30;;;;;;5057881;28;20410;-65
2022/07/02 05:57:12;;;;;;;1.50;1.00;;;15.70;79.40;;;;;;5059959;28;20470;-64
2022/07/02 05:59:39;;;;;;;3.10;0.95;;;15.80;79.60;;;;;;5058982;28;20049;-65
2022/07/02 06:02:07;;;;;;;3.42;1.25;;;15.80;79.30;;;;;;5058782;28;20048;-66
2022/07/02 06:04:34;;;;;;;2.65;1.00;;;15.90;79.50;;;;;;5056114;28;20047;-65
2022/07/02 06:09:45;;;;;;;2.08;1.00;;;15.90;79.70;;;;;;5054512;28;20572;-66
2022/07/02 06:12:13;;;;;;;2.60;1.08;;;16.00;79.60;;;;;;5053681;28;20187;-63
2022/07/02 06:14:40;;;;;;;2.15;0.85;;;16.00;79.90;;;;;;5048187;28;20393;-64
2022/07/02 06:17:07;;;;;;;1.35;0.75;;;16.10;79.60;;;;;;5051196;28;20076;-65
2022/07/02 06:19:34;;;;;;;1.60;0.80;;;16.10;79.40;;;;;;5049027;28;20052;-64
2022/07/02 06:22:01;;;;;;;2.47;1.08;;;16.20;79.30;;;;;;5052191;28;20048;-64
2022/07/02 06:24:28;;;;;;;1.92;1.05;;;16.30;79.10;;;;;;5043461;28;20130;-64
2022/07/02 06:26:55;;;;;;;2.72;1.15;;;16.30;79.10;;;;;;5048933;28;20067;-63
2022/07/02 06:29:23;;;;;;;2.78;1.05;;;16.50;78.90;;;;;;5055873;28;20053;-66
2022/07/02 06:31:50;;;;;;;2.58;1.17;;;16.50;79.00;;;;;;5053066;28;20065;-64
2022/07/02 06:34:17;;;;;;;1.70;1.08;;;16.60;78.90;;;;;;5057402;28;20516;-65
2022/07/02 06:36:44;;;;;;;2.50;1.40;;;16.70;78.80;;;;;;5052812;28;20604;-66
2022/07/02 06:39:11;;;;;;;2.50;1.35;;;16.90;78.40;;;;;;5049744;28;20045;-66
2022/07/02 06:44:24;;;;;;;4.57;1.83;;;17.10;78.10;;;;;;5047420;28;20049;-66
2022/07/02 06:46:51;;;;;;;3.92;2.08;;;17.30;77.80;;;;;;5048861;28;20893;-64
2022/07/02 06:49:18;;;;;;;9.30;2.50;;;17.50;77.90;;;;;;5046776;28;20064;-65
2022/07/02 06:51:45;;;;;;;8.75;4.15;;;17.60;77.50;;;;;;5044776;28;20405;-66
2022/07/02 06:54:12;;;;;;;7.65;3.25;;;17.80;77.10;;;;;;5048359;28;20571;-66
2022/07/02 06:56:39;;;;;;;8.52;2.40;;;17.90;77.50;;;;;;5054029;28;20071;-66
2022/07/02 06:59:07;;;;;;;4.65;1.80;;;18.10;77.30;;;;;;5059282;28;20048;-64
2022/07/02 07:01:36;;;;;;;4.43;1.63;;;18.20;77.20;;;;;;5052943;28;20071;-64
2022/07/02 07:04:03;;;;;;;4.38;1.75;;;18.30;76.40;;;;;;5057677;28;20050;-63
2022/07/02 07:06:30;;;;;;;4.00;1.65;;;18.50;76.60;;;;;;5057899;28;20603;-63
2022/07/02 07:08:57;;;;;;;2.95;1.83;;;18.60;76.70;;;;;;5051154;28;20041;-64
2022/07/02 07:11:24;;;;;;;2.75;1.65;;;18.70;76.50;;;;;;5047185;28;20049;-64
2022/07/02 07:13:51;;;;;;;4.25;1.38;;;18.90;76.20;;;;;;5045887;28;20048;-63
2022/07/02 07:16:18;;;;;;;5.53;2.22;;;19.00;76.10;;;;;;5046586;28;20037;-66
2022/07/02 07:18:47;;;;;;;4.15;1.60;;;19.20;75.50;;;;;;5046695;28;20498;-64
2022/07/02 07:21:14;;;;;;;2.63;1.38;;;19.30;75.40;;;;;;5045306;28;20064;-65
2022/07/02 07:23:41;;;;;;;2.38;1.33;;;19.50;75.20;;;;;;5047212;28;20041;-65
2022/07/02 07:26:08;;;;;;;2.80;1.40;;;19.60;75.00;;;;;;5049776;28;20044;-64
2022/07/02 07:28:35;;;;;;;1.73;1.00;;;19.70;74.60;;;;;;5050460;28;20044;-64
2022/07/02 07:31:02;;;;;;;2.05;1.15;;;19.80;74.00;;;;;;5053620;28;20064;-65
2022/07/02 07:33:29;;;;;;;4.35;1.45;;;20.00;73.90;;;;;;5058834;28;20099;-65
2022/07/02 07:35:57;;;;;;;5.25;1.40;;;20.10;73.60;;;;;;5053592;28;20044;-65
2022/07/02 07:38:24;;;;;;;4.97;1.88;;;20.40;72.60;;;;;;5052746;28;20143;-65
2022/07/02 07:40:51;;;;;;;2.78;1.38;;;20.50;72.70;;;;;;5053222;28;20502;-66
2022/07/02 07:43:18;;;;;;;3.55;1.52;;;20.60;72.60;;;;;;5055503;28;20049;-66
2022/07/02 07:45:46;;;;;;;4.80;1.30;;;20.70;72.60;;;;;;5053452;28;20132;-65
2022/07/02 07:48:13;;;;;;;1.70;1.13;;;21.00;71.00;;;;;;5045389;28;20052;-65
2022/07/02 07:50:40;;;;;;;2.35;1.15;;;21.10;71.30;;;;;;5044757;28;20052;-66
2022/07/02 07:53:08;;;;;;;2.85;1.35;;;21.30;70.60;;;;;;5045583;28;20122;-65
2022/07/02 07:55:36;;;;;;;1.85;1.10;;;21.50;69.60;;;;;;5044025;28;20110;-65
2022/07/02 07:58:03;;;;;;;2.95;0.90;;;21.60;69.10;;;;;;5044884;28;20041;-64
2022/07/02 08:00:30;;;;;;;4.05;1.17;;;21.70;68.60;;;;;;5047520;28;20407;-68
2022/07/02 08:02:57;;;;;;;2.20;1.13;;;21.90;68.60;;;;;;5050274;28;20041;-67
2022/07/02 08:05:25;;;;;;;2.60;0.98;;;22.10;68.00;;;;;;5052992;28;20056;-68
2022/07/02 08:07:52;;;;;;;3.65;1.20;;;22.20;66.90;;;;;;5052975;28;20051;-67
2022/07/02 08:10:20;;;;;;;3.15;0.85;;;22.30;66.80;;;;;;5053238;28;20607;-68
2022/07/02 08:12:47;;;;;;;3.70;0.80;;;22.40;66.50;;;;;;5051411;28;20045;-68
2022/07/02 08:15:14;;;;;;;2.20;1.00;;;22.50;66.00;;;;;;5048349;28;20690;-67
2022/07/02 08:17:41;;;;;;;2.55;0.93;;;22.60;66.30;;;;;;5059362;28;20450;-68
2022/07/02 08:20:10;;;;;;;1.48;0.90;;;22.70;65.60;;;;;;5049378;28;20045;-68
2022/07/02 08:22:37;;;;;;;1.30;0.70;;;22.80;64.70;;;;;;5045193;28;20041;-67
2022/07/02 08:25:05;;;;;;;1.60;1.00;;;23.00;64.30;;;;;;5044444;28;20074;-68
2022/07/02 08:27:34;;;;;;;3.38;1.10;;;23.10;63.40;;;;;;5044267;28;20044;-67
2022/07/02 08:30:01;;;;;;;2.80;1.10;;;23.10;63.20;;;;;;5046555;28;20485;-68
2022/07/02 08:32:28;;;;;;;2.58;1.00;;;23.10;62.60;;;;;;5042790;28;20048;-67
2022/07/02 08:34:56;;;;;;;1.05;0.80;;;23.10;63.10;;;;;;5040868;28;20051;-68
2022/07/02 08:37:23;;;;;;;2.72;0.70;;;23.20;62.20;;;;;;5043774;28;20044;-67
2022/07/02 08:39:50;;;;;;;2.40;0.60;;;23.30;62.00;;;;;;5051426;28;20049;-69
2022/07/02 08:42:25;;;;;;;0.93;0.70;;;23.50;60.70;;;;;;5052174;28;20503;-68
2022/07/02 08:44:55;;;;;;;1.30;0.63;;;23.60;58.50;;;;;;5043428;28;20886;-67
2022/07/02 08:47:23;;;;;;;1.83;0.68;;;23.70;59.40;;;;;;5046242;28;20045;-67
2022/07/02 08:49:52;;;;;;;0.98;0.60;;;23.90;59.50;;;;;;5042820;28;20044;-68
2022/07/02 08:52:22;;;;;;;2.53;0.55;;;24.00;59.20;;;;;;5045342;28;20433;-68
2022/07/02 08:54:50;;;;;;;1.17;0.80;;;24.00;58.90;;;;;;5041670;28;20048;-68
2022/07/02 08:57:47;;;;;;;1.67;0.68;;;24.10;57.90;;;;;;5046885;28;20075;-66
2022/07/02 09:00:18;;;;;;;1.30;0.52;;;24.20;57.00;;;;;;5046989;28;20048;-68
2022/07/02 09:02:46;;;;;;;1.13;0.95;;;24.30;57.00;;;;;;5054123;28;20482;-68
2022/07/02 09:05:15;;;;;;;1.67;0.70;;;24.50;57.00;;;;;;5053448;28;20052;-67
2022/07/02 09:07:42;;;;;;;0.60;0.47;;;24.50;56.60;;;;;;5052998;28;20051;-68
2022/07/02 09:10:11;;;;;;;2.20;0.50;;;24.50;56.80;;;;;;5056271;28;20141;-67
2022/07/02 09:12:40;;;;;;;1.52;0.70;;;24.30;55.40;;;;;;5056122;28;20044;-68
2022/07/02 09:15:08;;;;;;;0.70;0.60;;;24.40;55.00;;;;;;5051927;28;20045;-68
2022/07/02 09:17:37;;;;;;;0.65;0.40;;;24.50;54.10;;;;;;5047230;28;20330;-68
2022/07/02 09:20:05;;;;;;;1.08;0.82;;;24.50;54.10;;;;;;5046121;28;20057;-68
2022/07/02 09:22:34;;;;;;;4.50;0.93;;;24.40;54.20;;;;;;5044110;28;20066;-68
2022/07/02 09:25:09;;;;;;;2.00;0.68;;;24.30;54.00;;;;;;5042589;28;20094;-69
2022/07/02 09:27:36;;;;;;;4.28;0.90;;;24.30;53.70;;;;;;5046853;28;20080;-67
2022/07/02 09:30:04;;;;;;;2.78;1.20;;;24.30;54.00;;;;;;5047628;28;20049;-67
2022/07/02 09:32:40;;;;;;;2.45;1.05;;;24.40;53.70;;;;;;5049927;28;20499;-68
2022/07/02 09:35:08;;;;;;;4.18;1.25;;;24.60;52.40;;;;;;5055972;28;20045;-68
2022/07/02 09:37:35;;;;;;;2.83;0.85;;;24.90;51.70;;;;;;5049976;28;20049;-69
2022/07/02 09:40:03;;;;;;;2.72;0.90;;;25.10;49.20;;;;;;5056717;28;20497;-68
2022/07/02 09:42:31;;;;;;;2.97;0.70;;;25.20;49.40;;;;;;5071036;28;20438;-68
2022/07/02 09:45:00;;;;;;;1.60;0.57;;;25.40;49.20;;;;;;5048266;28;20464;-68
2022/07/02 09:47:32;;;;;;;1.58;0.63;;;25.50;49.30;;;;;;5048139;28;20033;-69
2022/07/02 09:50:03;;;;;;;4.13;0.90;;;25.60;49.50;;;;;;5045722;28;20057;-69
2022/07/02 09:52:31;;;;;;;1.80;0.52;;;25.60;48.20;;;;;;5043787;28;20076;-69
2022/07/02 09:54:58;;;;;;;1.00;0.35;;;25.60;48.60;;;;;;5045935;28;20052;-67
2022/07/02 09:57:26;;;;;;;0.47;0.35;;;25.70;47.10;;;;;;5050473;28;20512;-68
2022/07/02 09:59:53;;;;;;;1.20;0.60;;;25.90;46.90;;;;;;5045782;28;20045;-67
2022/07/02 10:02:23;;;;;;;6.63;1.80;;;26.00;47.20;;;;;;5041604;28;20067;-68
2022/07/02 10:04:55;;;;;;;5.32;2.17;;;26.10;46.90;;;;;;5052368;28;20060;-67
2022/07/02 10:07:25;;;;;;;3.60;1.50;;;26.20;47.10;;;;;;5050289;28;20076;-68
2022/07/02 10:09:53;;;;;;;6.40;1.30;;;26.40;46.30;;;;;;5051721;28;20052;-69
2022/07/02 10:12:20;;;;;;;2.38;1.10;;;26.50;45.40;;;;;;5052196;28;20052;-68
2022/07/02 10:14:48;;;;;;;5.45;1.92;;;26.60;45.20;;;;;;5055593;28;20080;-68
2022/07/02 10:17:16;;;;;;;3.30;0.77;;;26.60;44.80;;;;;;5053025;28;20047;-69
2022/07/02 10:19:43;;;;;;;1.30;0.60;;;26.80;44.40;;;;;;5048700;28;20545;-68
2022/07/02 10:22:11;;;;;;;2.25;0.90;;;26.80;43.50;;;;;;5042880;28;20076;-68
2022/07/02 10:24:41;;;;;;;2.63;0.50;;;26.80;43.60;;;;;;5046593;28;21497;-68
2022/07/02 10:27:08;;;;;;;1.38;0.60;;;26.90;43.50;;;;;;5045411;28;20048;-70
2022/07/02 10:29:38;;;;;;;1.80;0.70;;;27.00;42.40;;;;;;5048768;28;20049;-68
2022/07/02 10:32:18;;;;;;;1.65;0.50;;;26.90;42.40;;;;;;5050137;28;20490;-68
2022/07/02 10:35:00;;;;;;;0.80;0.40;;;27.00;41.80;;;;;;5043272;28;20057;-69
2022/07/02 10:37:29;;;;;;;2.40;0.70;;;27.10;42.00;;;;;;5047790;28;20123;-68
2022/07/02 10:40:02;;;;;;;1.42;0.50;;;27.20;41.90;;;;;;5056535;28;20442;-69
2022/07/02 10:42:40;;;;;;;3.45;0.77;;;27.20;41.60;;;;;;5057968;28;20041;-68
2022/07/02 10:45:12;;;;;;;2.50;0.70;;;27.40;41.70;;;;;;5054045;28;20061;-68
2022/07/02 10:47:58;;;;;;;1.33;0.40;;;27.50;41.20;;;;;;5049981;28;20064;-68
2022/07/02 10:50:40;;;;;;;2.17;0.47;;;27.60;40.60;;;;;;5057238;28;20053;-69
2022/07/02 10:53:09;;;;;;;2.45;0.68;;;27.60;39.90;;;;;;5047684;28;20122;-69
2022/07/02 10:55:38;;;;;;;0.77;0.60;;;27.60;40.50;;;;;;5048426;28;20071;-68
2022/07/02 10:58:07;;;;;;;1.10;0.50;;;27.70;40.30;;;;;;5052560;28;20402;-67
2022/07/02 11:00:36;;;;;;;1.38;0.50;;;27.70;40.00;;;;;;5045804;28;20052;-70
2022/07/02 11:03:14;;;;;;;2.20;0.65;;;27.80;39.70;;;;;;5048872;28;20048;-68
2022/07/02 11:05:56;;;;;;;1.25;0.50;;;27.80;39.60;;;;;;5049136;28;20407;-68
2022/07/02 11:08:47;;;;;;;1.52;0.95;;;27.80;39.50;;;;;;5047490;28;20486;-68
2022/07/02 11:11:18;;;;;;;1.33;0.60;;;27.80;40.10;;;;;;5052477;28;20052;-69
2022/07/02 11:13:48;;;;;;;1.80;0.50;;;27.90;40.30;;;;;;5055108;28;20127;-68
2022/07/02 11:16:27;;;;;;;2.97;0.55;;;28.00;40.50;;;;;;5057289;28;20057;-68
2022/07/02 11:18:55;;;;;;;0.88;0.50;;;28.10;40.60;;;;;;5055635;28;20162;-68
2022/07/02 11:21:24;;;;;;;1.87;0.60;;;28.10;40.40;;;;;;5054222;28;20048;-67
2022/07/02 11:23:52;;;;;;;1.48;0.50;;;28.10;40.10;;;;;;5058952;28;20075;-69
2022/07/02 11:26:22;;;;;;;1.73;0.50;;;28.20;39.70;;;;;;5046102;28;20060;-67
2022/07/02 11:28:49;;;;;;;1.73;0.45;;;28.10;39.20;;;;;;5045844;28;20470;-69
2022/07/02 11:31:18;;;;;;;1.27;0.60;;;27.90;39.70;;;;;;5048118;28;20131;-68
2022/07/02 11:33:46;;;;;;;2.90;0.60;;;27.60;39.70;;;;;;5049040;28;20045;-69
2022/07/02 11:36:14;;;;;;;0.50;0.50;;;27.50;39.70;;;;;;5048065;28;20472;-69
2022/07/02 11:38:43;;;;;;;2.28;0.73;;;27.60;39.90;;;;;;5045227;28;20059;-69
2022/07/02 11:41:23;;;;;;;3.03;0.80;;;27.60;39.90;;;;;;5048064;28;20053;-68
2022/07/02 11:43:52;;;;;;;3.70;1.40;;;27.70;39.50;;;;;;5053167;28;20048;-68
2022/07/02 11:46:21;;;;;;;3.97;1.38;;;27.80;39.50;;;;;;5053905;28;20068;-69
2022/07/02 11:48:49;;;;;;;2.55;1.05;;;27.80;39.50;;;;;;5052579;28;20494;-68
2022/07/02 11:51:19;;;;;;;4.22;0.93;;;27.90;39.20;;;;;;5051090;28;20075;-69
2022/07/02 11:53:56;;;;;;;3.38;1.08;;;28.00;39.30;;;;;;5059401;28;20110;-68
2022/07/02 11:56:25;;;;;;;2.80;1.27;;;28.00;39.20;;;;;;5053836;28;20493;-69
2022/07/02 11:58:52;;;;;;;1.58;0.85;;;28.10;39.30;;;;;;5050940;28;20399;-69
2022/07/02 12:01:24;;;;;;;2.80;1.20;;;28.10;39.20;;;;;;5045349;28;20040;-70
2022/07/02 12:03:52;;;;;;;2.42;1.10;;;28.10;39.10;;;;;;5043754;28;20080;-69
2022/07/02 12:06:20;;;;;;;3.70;1.43;;;28.20;39.00;;;;;;5045271;28;20037;-68
2022/07/02 12:08:47;;;;;;;3.50;1.48;;;28.30;38.90;;;;;;5045121;28;21026;-68
2022/07/02 12:11:16;;;;;;;5.68;1.33;;;28.30;38.90;;;;;;5045811;28;20132;-68
2022/07/02 12:13:45;;;;;;;2.58;1.27;;;28.30;38.90;;;;;;5047468;28;20047;-69
2022/07/02 12:16:12;;;;;;;;;;;28.30;38.60;;;;;;5045084;28;20049;-69
2022/07/02 12:18:40;;;;;;;2.83;1.17;;;28.40;38.50;;;;;;5057233;28;19975;-70
2022/07/02 12:21:16;;;;;;;3.85;1.35;;;28.40;38.50;;;;;;5054847;28;20063;-69
2022/07/02 12:23:45;;;;;;;4.32;1.30;;;28.40;38.90;;;;;;5054844;28;20061;-68
2022/07/02 12:26:19;;;;;;;5.88;3.17;;;28.50;38.60;;;;;;5050955;28;20049;-68
2022/07/02 12:31:49;;;;;;;3.97;1.60;;;28.40;39.10;;;;;;5051596;28;20045;-69
2022/07/02 12:34:16;;;;;;;1.90;0.98;;;28.40;38.90;;;;;;5044348;28;20497;-68
2022/07/02 12:36:56;;;;;;;3.10;1.10;;;28.40;38.80;;;;;;5047767;28;20454;-69
2022/07/02 12:39:25;;;;;;;4.03;1.55;;;28.40;38.60;;;;;;5044270;28;20056;-68
2022/07/02 12:41:52;;;;;;;3.10;1.35;;;28.50;38.80;;;;;;5047508;28;20055;-67
2022/07/02 12:44:23;;;;;;;7.38;1.92;;;28.50;38.60;;;;;;5046547;28;20076;-68
2022/07/02 12:46:52;;;;;;;4.40;2.20;;;28.50;38.60;;;;;;5047957;28;20486;-68
2022/07/02 12:49:21;;;;;;;4.50;1.80;;;28.50;38.60;;;;;;5048345;28;20053;-68
2022/07/02 12:51:59;;;;;;;2.63;1.10;;;28.50;38.30;;;;;;5057828;28;20064;-67
2022/07/02 12:54:36;;;;;;;2.17;1.00;;;28.40;38.40;;;;;;5050767;28;20055;-68
2022/07/02 12:57:14;;;;;;;3.35;1.52;;;28.40;38.70;;;;;;5058143;28;20041;-69
2022/07/02 12:59:43;;;;;;;4.70;2.03;;;28.30;38.40;;;;;;5051727;28;20124;-68
2022/07/02 13:02:15;;;;;;;3.60;1.58;;;28.30;37.80;;;;;;5041746;28;20508;-68
2022/07/02 13:04:43;;;;;;;4.97;1.65;;;28.30;37.60;;;;;;5046983;28;20040;-67
2022/07/02 13:07:11;;;;;;;1.90;1.00;;;28.20;37.80;;;;;;5043663;28;20160;-67